x

Smith Island, Wa (sisw1) Weather Station

7:00pm - Sun 29th May 2016 All times are PDT. -7 hours from GMT.

  • Wind
    11mph, 13mph gusts
  • 空気 Temp 55°f
  • Sea Pressure 1022.3mb
  • Smith Island, Wa
  • Smith Island, Wa

More Historic Weather Station data

Upgrade to MSW Pro to gain access to the past 30 days of data for over 8000 Wavebouys and Weather Stations around the globe.

Join Pro

Comparision Forecast

View Surf forecast
   
Sun 05/29 7:00pm 11 13 mph 1022.3mb 55f
6:00pm 13 14 mph 1022.2mb 55f
5:00pm 8 9 mph 1021.9mb 58f
4:00pm 10 13 mph 1021.9mb 57f
3:00pm 14 16 mph 1021.8mb 56f
2:00pm 16 18 mph 1021.6mb 55f
1:00pm 11 14 mph 1021.4mb 55f
12:00pm 11 15 mph 1020.9mb 54f
11:00am 15 17 mph 1020.2mb 53f
10:00am 15 16 mph 1020mb 51f
9:00am 13 15 mph 1019.5mb 51f
8:00am 15 17 mph 1019mb 51f
7:00am 14 16 mph 1018.7mb 50f
6:00am 7 8 mph 1018.3mb 51f
5:00am 15 18 mph 1017.3mb 51f
4:00am 9 13 mph 1017.1mb 51f
3:00am 9 10 mph 1017mb 51f
2:00am 6 7 mph 1016.9mb 52f
1:00am 5 6 mph 1016.9mb 51f
12:00am 6 7 mph 1016.8mb 51f
Sat 05/28 11:00pm 8 9 mph 1016.6mb 51f
10:00pm 11 13 mph 1016.3mb 52f
9:00pm 5 6 mph 1015.8mb 53f
8:00pm 3
mph
1015.6mb 54f
7:00pm 16 17 mph 1015mb 55f
6:00pm 18 21 mph 1014.9mb 55f
5:00pm 24 26 mph 1014.8mb 56f
4:00pm 29 30 mph 1014.8mb 57f
3:00pm 28 31 mph 1014.6mb 58f
2:00pm 26 28 mph 1014.6mb 58f
1:00pm 24 26 mph 1015mb 55f
12:00pm 25 29 mph 1015.6mb 54f
11:00am 28 31 mph 1015.7mb 52f
10:00am 31 34 mph 1015.7mb 51f
9:00am 31 34 mph 1015.9mb 51f
8:00am 32 34 mph 1015.9mb 50f
7:00am 24 26 mph 1016.6mb 50f
6:00am 23 25 mph 1017mb 49f
5:00am 18 21 mph 1017.5mb 49f
4:00am 9 10 mph 1018.3mb 49f
3:00am 5 7 mph 1019mb 49f
2:00am 7 11 mph 1019.3mb 49f
1:00am 9 13 mph 1019.5mb 50f
12:00am 15 16 mph 1019.5mb 51f
Fri 05/27 11:00pm 17 20 mph 1019.5mb 51f
10:00pm 20 22 mph 1019.6mb 51f
9:00pm 21 24 mph 1019.4mb 52f
8:00pm 20 23 mph 1019.6mb 52f
7:00pm 14 17 mph 1019.8mb 53f
6:00pm 15 18 mph 1019.8mb 53f
5:00pm 15 20 mph 1020.2mb 53f
4:00pm 16 18 mph 1020.6mb 54f
3:00pm 14 15 mph 1020.8mb 54f
2:00pm 13 15 mph 1020.9mb 54f
1:00pm 13 16 mph 1021.1mb 55f
12:00pm 11 14 mph 1021.1mb 54f
11:00am 7 8 mph 1021mb 53f
10:00am 11 13 mph 1020.7mb 52f
9:00am 14 16 mph 1020.7mb 51f
8:00am 7 8 mph 1020.8mb 49f
7:00am 8 9 mph 1020.5mb 49f
6:00am 13 14 mph 1020.3mb 50f
5:00am 20 23 mph 1019.7mb 51f
4:00am 20 25 mph 1019.5mb 50f
3:00am 16 25 mph 1019.9mb 51f
2:00am 20 26 mph 1019.7mb 51f
1:00am 24 30 mph 1019.7mb 51f
12:00am 21 26 mph 1020.3mb 51f
Thu 05/26 11:00pm 29 33 mph 1020.2mb 51f
10:00pm 32 39 mph 1019.9mb 52f
9:00pm 30 36 mph 1019.5mb 52f
8:00pm 30 34 mph 1019.3mb 52f
7:00pm 20 29 mph 1019.8mb 53f
6:00pm 22 26 mph 1020.1mb 53f
5:00pm 16 23 mph 1020.7mb 53f
4:00pm 13 15 mph 1021.2mb 54f
3:00pm 9 11 mph 1021.7mb 54f
2:00pm 7 9 mph 1021.9mb 56f
1:00pm 7 9 mph 1022.1mb 57f
12:00pm 7 9 mph 1022.1mb 57f
11:00am 11 13 mph 1022mb 54f
10:00am 15 16 mph 1022mb 53f
9:00am 16 17 mph 1022.1mb 54f
8:00am 16 18 mph 1022.2mb 53f
7:00am 8 11 mph 1022.1mb 53f
6:00am 11 13 mph 1022mb 51f
5:00am 14 17 mph 1021.7mb 52f
4:00am 15 20 mph 1021.9mb 52f